Time;durP1;ratioP1;P1;durP2;ratioP2;P2;SDS_P1;SDS_P2;PMS_P1;PMS_P2;Temp;Humidity;BMP_temperature;BMP_pressure;BME280_temperature;BME280_humidity;BME280_pressure;Samples;Min_cycle;Max_cycle;Signal;HPM_P1;HPM_P2
2021/07/29 00:01:01;;;;;;;9.98;6.70;;;;;;;;;;5000867;28;20168;-79
2021/07/29 00:03:29;;;;;;;10.02;5.90;;;;;;;;;;4990673;28;20057;-81
2021/07/29 00:05:56;;;;;;;9.25;5.57;;;;;;;;;;4992437;28;20042;-79
2021/07/29 00:08:25;;;;;;;8.93;5.85;;;;;;;;;;4990485;28;20050;-80
2021/07/29 00:10:52;;;;;;;16.05;6.72;;;;;;;;;;4982224;28;20109;-79
2021/07/29 00:13:20;;;;;;;9.90;5.65;;;;;;;;;;4989075;28;20149;-80
2021/07/29 00:15:47;;;;;;;15.38;5.40;;;;;;;;;;4991063;28;20042;-79
2021/07/29 00:20:43;;;;;;;12.10;5.63;;;;;;;;;;4989373;28;20081;-80
2021/07/29 00:23:10;;;;;;;13.63;6.22;;;;;;;;;;4988454;28;20539;-80
2021/07/29 00:25:37;;;;;;;16.15;5.20;;;;;;;;;;4988705;28;20058;-80
2021/07/29 00:28:04;;;;;;;21.02;6.05;;;;;;;;;;4991643;28;20542;-80
2021/07/29 00:30:31;;;;;;;15.10;6.05;;;;;;;;;;4989133;28;20125;-80
2021/07/29 00:32:58;;;;;;;10.30;6.25;;;;;;;;;;4994264;28;20137;-80
2021/07/29 00:35:29;;;;;;;9.40;5.35;;;;;;;;;;4987899;28;20046;-79
2021/07/29 00:38:00;;;;;;;15.75;5.25;;;;;;;;;;4988448;28;20160;-79
2021/07/29 00:40:28;;;;;;;8.35;5.13;;;;;;;;;;4994734;28;20924;-80
2021/07/29 00:42:55;;;;;;;8.10;5.55;;;;;;;;;;4982824;28;20050;-80
2021/07/29 00:45:24;;;;;;;13.23;5.90;;;;;;;;;;4989087;28;20848;-80
2021/07/29 00:47:51;;;;;;;10.27;4.75;;;;;;;;;;4989237;28;20069;-79
2021/07/29 00:50:36;;;;;;;11.82;5.28;;;;;;;;;;4988580;28;20554;-80
2021/07/29 00:53:08;;;;;;;10.98;5.53;;;;;;;;;;4995883;28;20133;-80
2021/07/29 00:55:37;;;;;;;13.68;5.32;;;;;;;;;;4980292;28;20133;-80
2021/07/29 00:58:04;;;;;;;11.55;5.25;;;;;;;;;;4992054;28;21511;-79
2021/07/29 01:00:31;;;;;;;7.38;4.93;;;;;;;;;;4995594;28;20093;-80
2021/07/29 01:02:59;;;;;;;12.07;5.15;;;;;;;;;;4988470;28;20650;-79
2021/07/29 01:05:26;;;;;;;13.70;5.18;;;;;;;;;;4988790;28;20050;-79
2021/07/29 01:07:53;;;;;;;8.90;5.47;;;;;;;;;;4982389;28;20466;-79
2021/07/29 01:10:21;;;;;;;10.93;5.05;;;;;;;;;;4987928;28;20134;-79
2021/07/29 01:12:48;;;;;;;8.63;4.60;;;;;;;;;;4988541;28;20753;-80
2021/07/29 01:15:16;;;;;;;11.90;5.30;;;;;;;;;;4988236;28;20050;-80
2021/07/29 01:17:45;;;;;;;9.85;5.05;;;;;;;;;;4989971;28;20096;-80
2021/07/29 01:20:22;;;;;;;9.85;4.78;;;;;;;;;;4987847;28;20460;-80
2021/07/29 01:22:49;;;;;;;7.15;4.47;;;;;;;;;;4988982;28;20161;-79
2021/07/29 01:25:16;;;;;;;12.18;4.72;;;;;;;;;;4987826;28;20507;-79
2021/07/29 01:27:43;;;;;;;7.60;4.95;;;;;;;;;;4988456;28;20133;-79
2021/07/29 01:30:11;;;;;;;13.80;4.65;;;;;;;;;;4988043;28;20050;-80
2021/07/29 01:32:39;;;;;;;11.38;5.78;;;;;;;;;;4985379;28;20125;-78
2021/07/29 01:35:08;;;;;;;10.95;4.72;;;;;;;;;;4986490;28;20050;-78
2021/07/29 01:37:40;;;;;;;10.02;4.80;;;;;;;;;;4973604;28;20073;-79
2021/07/29 01:40:08;;;;;;;11.65;5.00;;;;;;;;;;4988704;28;20145;-79
2021/07/29 01:42:35;;;;;;;9.05;4.70;;;;;;;;;;4986268;28;20170;-79
2021/07/29 01:45:03;;;;;;;13.55;4.72;;;;;;;;;;4994939;28;20046;-79
2021/07/29 01:47:31;;;;;;;13.20;5.05;;;;;;;;;;4983844;28;20084;-79
2021/07/29 01:50:03;;;;;;;16.15;5.25;;;;;;;;;;4974840;28;20068;-79
2021/07/29 01:52:30;;;;;;;8.45;4.55;;;;;;;;;;4979730;28;20047;-79
2021/07/29 01:54:57;;;;;;;11.02;4.60;;;;;;;;;;4987178;28;20133;-78
2021/07/29 01:57:24;;;;;;;7.68;4.68;;;;;;;;;;4991226;28;20096;-79
2021/07/29 01:59:51;;;;;;;8.93;4.22;;;;;;;;;;4986816;28;20034;-79
2021/07/29 02:02:19;;;;;;;11.85;4.90;;;;;;;;;;4984568;28;20082;-78
2021/07/29 02:04:46;;;;;;;8.93;4.22;;;;;;;;;;4984237;28;20494;-79
2021/07/29 02:07:14;;;;;;;10.93;4.68;;;;;;;;;;4987338;28;20716;-79
2021/07/29 02:09:41;;;;;;;8.73;5.03;;;;;;;;;;4985618;28;20129;-79
2021/07/29 02:12:08;;;;;;;9.93;4.00;;;;;;;;;;4986058;28;20078;-79
2021/07/29 02:14:36;;;;;;;7.47;4.65;;;;;;;;;;4986370;28;20043;-79
2021/07/29 02:17:03;;;;;;;16.92;5.43;;;;;;;;;;4985144;28;20057;-79
2021/07/29 02:19:32;;;;;;;13.68;5.07;;;;;;;;;;4985267;28;20097;-79
2021/07/29 02:21:59;;;;;;;12.48;4.35;;;;;;;;;;4999352;28;20078;-79
2021/07/29 02:24:26;;;;;;;12.43;7.32;;;;;;;;;;4986185;28;20129;-79
2021/07/29 02:26:54;;;;;;;17.50;5.95;;;;;;;;;;4986055;28;20134;-79
2021/07/29 02:29:21;;;;;;;15.55;5.03;;;;;;;;;;4986949;28;20078;-79
2021/07/29 02:31:49;;;;;;;17.17;5.68;;;;;;;;;;4986332;28;20157;-79
2021/07/29 02:34:16;;;;;;;15.38;5.60;;;;;;;;;;4986408;28;20483;-79
2021/07/29 02:36:43;;;;;;;10.85;5.40;;;;;;;;;;4986415;28;20832;-79
2021/07/29 02:39:11;;;;;;;12.02;5.05;;;;;;;;;;4987220;28;20113;-80
2021/07/29 02:41:38;;;;;;;10.25;5.13;;;;;;;;;;4985613;28;20085;-79
2021/07/29 02:44:05;;;;;;;11.60;6.13;;;;;;;;;;4985326;28;20423;-79
2021/07/29 02:46:32;;;;;;;15.35;5.65;;;;;;;;;;4986975;28;20750;-79
2021/07/29 02:49:01;;;;;;;15.02;5.40;;;;;;;;;;4987610;28;20050;-79
2021/07/29 02:51:29;;;;;;;14.32;5.47;;;;;;;;;;4988571;28;20046;-78
2021/07/29 02:53:56;;;;;;;13.18;5.47;;;;;;;;;;4989323;28;20073;-79
2021/07/29 02:56:23;;;;;;;14.80;5.10;;;;;;;;;;4990431;28;20106;-79
2021/07/29 02:58:50;;;;;;;7.55;5.07;;;;;;;;;;4990966;28;20206;-79
2021/07/29 03:01:17;;;;;;;7.93;4.47;;;;;;;;;;4991058;28;20081;-79
2021/07/29 03:03:45;;;;;;;16.55;5.50;;;;;;;;;;4986678;28;20054;-79
2021/07/29 03:06:12;;;;;;;10.20;4.82;;;;;;;;;;4988575;28;20129;-79
2021/07/29 03:08:39;;;;;;;12.57;4.80;;;;;;;;;;4989131;28;20749;-79
2021/07/29 03:11:09;;;;;;;9.10;4.35;;;;;;;;;;4986754;28;20129;-79
2021/07/29 03:13:37;;;;;;;9.15;4.72;;;;;;;;;;4989329;28;20105;-79
2021/07/29 03:16:04;;;;;;;7.57;4.70;;;;;;;;;;4998236;28;20088;-79
2021/07/29 03:18:32;;;;;;;10.30;4.65;;;;;;;;;;4988808;28;20081;-79
2021/07/29 03:20:59;;;;;;;6.80;4.20;;;;;;;;;;4989885;28;20053;-79
2021/07/29 03:23:27;;;;;;;8.73;4.50;;;;;;;;;;4986262;28;20081;-79
2021/07/29 03:25:54;;;;;;;7.28;4.45;;;;;;;;;;4985625;28;20169;-79
2021/07/29 03:28:22;;;;;;;7.95;4.82;;;;;;;;;;4988367;28;20096;-79
2021/07/29 03:30:52;;;;;;;9.52;4.50;;;;;;;;;;4989938;28;20086;-79
2021/07/29 03:33:20;;;;;;;11.75;4.65;;;;;;;;;;4987914;28;20078;-79
2021/07/29 03:35:47;;;;;;;11.50;4.75;;;;;;;;;;4988730;28;20058;-79
2021/07/29 03:38:14;;;;;;;11.30;4.47;;;;;;;;;;4989473;28;20141;-79
2021/07/29 03:40:42;;;;;;;12.20;4.78;;;;;;;;;;4989842;28;20062;-79
2021/07/29 03:43:09;;;;;;;8.30;4.88;;;;;;;;;;4987630;28;20069;-79
2021/07/29 03:45:38;;;;;;;8.85;4.80;;;;;;;;;;4989367;28;20082;-78
2021/07/29 03:48:05;;;;;;;8.27;4.30;;;;;;;;;;4989246;28;20053;-78
2021/07/29 03:50:32;;;;;;;8.40;4.80;;;;;;;;;;4987843;28;20436;-79
2021/07/29 03:53:00;;;;;;;12.15;4.78;;;;;;;;;;4988512;28;20447;-78
2021/07/29 03:55:27;;;;;;;8.48;4.82;;;;;;;;;;4988647;28;20050;-79
2021/07/29 03:57:54;;;;;;;14.55;4.47;;;;;;;;;;4991848;28;20153;-78
2021/07/29 04:00:22;;;;;;;13.00;4.35;;;;;;;;;;4986952;28;20081;-78
2021/07/29 04:02:49;;;;;;;7.22;4.70;;;;;;;;;;4988344;28;20133;-79
2021/07/29 04:05:17;;;;;;;8.88;4.57;;;;;;;;;;4990609;28;20120;-79
2021/07/29 04:07:44;;;;;;;9.75;4.18;;;;;;;;;;4985643;28;20086;-78
2021/07/29 04:10:11;;;;;;;13.63;4.97;;;;;;;;;;4986347;28;20050;-78
2021/07/29 04:12:39;;;;;;;13.15;6.30;;;;;;;;;;4988079;28;20045;-78
2021/07/29 04:15:06;;;;;;;9.27;4.68;;;;;;;;;;4988378;28;20050;-78
2021/07/29 04:17:33;;;;;;;13.70;5.35;;;;;;;;;;4983058;28;20050;-78
2021/07/29 04:20:01;;;;;;;10.68;4.32;;;;;;;;;;4987031;28;20054;-79
2021/07/29 04:22:28;;;;;;;13.63;4.88;;;;;;;;;;4988345;28;20046;-78
2021/07/29 04:24:58;;;;;;;12.40;4.82;;;;;;;;;;4988823;28;20402;-78
2021/07/29 04:27:25;;;;;;;10.68;4.80;;;;;;;;;;4985189;28;20137;-76
2021/07/29 04:29:53;;;;;;;13.25;4.47;;;;;;;;;;4980257;28;20068;-78
2021/07/29 04:32:20;;;;;;;6.93;4.03;;;;;;;;;;4987705;28;20077;-79
2021/07/29 04:34:51;;;;;;;10.90;4.68;;;;;;;;;;4990411;28;20124;-79
2021/07/29 04:37:18;;;;;;;9.85;4.63;;;;;;;;;;4989419;28;20237;-79
2021/07/29 04:39:45;;;;;;;6.88;4.10;;;;;;;;;;4986315;28;20153;-78
2021/07/29 04:42:13;;;;;;;11.00;4.25;;;;;;;;;;4988309;28;20451;-78
2021/07/29 04:44:40;;;;;;;9.90;4.35;;;;;;;;;;4984115;28;20137;-78
2021/07/29 04:47:07;;;;;;;7.13;4.35;;;;;;;;;;4978915;28;20073;-79
2021/07/29 04:49:34;;;;;;;6.57;4.13;;;;;;;;;;4988203;28;20129;-78
2021/07/29 04:52:01;;;;;;;14.75;4.38;;;;;;;;;;4984894;28;20054;-79
2021/07/29 04:54:28;;;;;;;5.13;3.90;;;;;;;;;;4992000;28;20703;-79
2021/07/29 04:56:55;;;;;;;6.20;3.95;;;;;;;;;;4987320;28;20089;-78
2021/07/29 04:59:23;;;;;;;6.93;3.88;;;;;;;;;;4986304;28;20054;-78
2021/07/29 05:01:50;;;;;;;6.15;3.97;;;;;;;;;;4985762;28;20646;-78
2021/07/29 05:04:17;;;;;;;8.95;3.92;;;;;;;;;;4985571;28;20554;-77
2021/07/29 05:06:45;;;;;;;8.23;3.78;;;;;;;;;;4981302;28;20054;-78
2021/07/29 05:09:12;;;;;;;16.15;4.10;;;;;;;;;;4986049;28;20483;-81
2021/07/29 05:11:39;;;;;;;11.38;4.15;;;;;;;;;;4986785;28;20053;-81
2021/07/29 05:14:06;;;;;;;9.15;4.32;;;;;;;;;;4982434;28;20081;-80
2021/07/29 05:16:34;;;;;;;7.18;3.67;;;;;;;;;;4988773;28;20058;-81
2021/07/29 05:19:02;;;;;;;7.88;4.38;;;;;;;;;;4987960;28;20057;-80
2021/07/29 05:21:29;;;;;;;6.47;3.85;;;;;;;;;;4991487;28;20546;-81
2021/07/29 05:23:57;;;;;;;11.07;3.97;;;;;;;;;;4988722;28;20105;-80
2021/07/29 05:26:26;;;;;;;12.57;4.70;;;;;;;;;;5002689;28;20049;-85
2021/07/29 05:28:53;;;;;;;7.82;3.92;;;;;;;;;;4997195;28;20089;-81
2021/07/29 05:31:21;;;;;;;7.72;4.10;;;;;;;;;;4998151;28;20034;-80
2021/07/29 05:33:48;;;;;;;9.30;3.92;;;;;;;;;;4989906;28;20145;-79
2021/07/29 05:36:16;;;;;;;19.83;4.18;;;;;;;;;;4978257;28;20081;-81
2021/07/29 05:38:43;;;;;;;6.18;3.95;;;;;;;;;;5002287;28;20074;-78
2021/07/29 05:41:10;;;;;;;5.85;3.70;;;;;;;;;;4987562;28;20046;-85
2021/07/29 05:43:38;;;;;;;11.45;3.58;;;;;;;;;;4987380;28;20129;-79
2021/07/29 05:46:09;;;;;;;9.80;3.25;;;;;;;;;;4987191;28;20125;-79
2021/07/29 05:48:37;;;;;;;6.45;3.85;;;;;;;;;;4985153;28;20066;-79
2021/07/29 05:51:04;;;;;;;8.77;3.30;;;;;;;;;;4985276;28;20070;-80
2021/07/29 05:53:31;;;;;;;8.00;3.58;;;;;;;;;;4986366;28;20069;-79
2021/07/29 05:55:59;;;;;;;6.00;3.42;;;;;;;;;;4987956;28;20530;-79
2021/07/29 05:58:26;;;;;;;6.63;3.60;;;;;;;;;;4983767;28;20122;-79
2021/07/29 06:00:54;;;;;;;9.10;3.92;;;;;;;;;;4987509;28;20125;-78
2021/07/29 06:03:23;;;;;;;6.95;3.70;;;;;;;;;;4987260;28;20085;-79
2021/07/29 06:05:51;;;;;;;7.15;3.35;;;;;;;;;;4987665;28;20066;-79
2021/07/29 06:08:18;;;;;;;5.25;3.20;;;;;;;;;;4983490;28;20129;-79
2021/07/29 06:10:46;;;;;;;6.60;3.67;;;;;;;;;;4987521;28;20048;-79
2021/07/29 06:13:13;;;;;;;11.10;3.55;;;;;;;;;;4984459;28;20038;-79
2021/07/29 06:15:40;;;;;;;6.60;2.92;;;;;;;;;;4988331;28;20054;-80
2021/07/29 06:18:12;;;;;;;6.60;3.17;;;;;;;;;;4987371;28;20152;-79
2021/07/29 06:20:41;;;;;;;6.70;2.95;;;;;;;;;;4989869;28;20762;-79
2021/07/29 06:23:08;;;;;;;5.20;2.80;;;;;;;;;;4990588;28;20122;-79
2021/07/29 06:25:35;;;;;;;5.55;3.03;;;;;;;;;;4992660;28;20133;-78
2021/07/29 06:28:02;;;;;;;5.90;2.70;;;;;;;;;;4996137;28;20124;-79
2021/07/29 06:30:30;;;;;;;5.45;3.42;;;;;;;;;;4990587;28;20489;-78
2021/07/29 06:32:58;;;;;;;3.85;2.60;;;;;;;;;;4991071;28;20137;-79
2021/07/29 06:35:26;;;;;;;7.50;3.33;;;;;;;;;;4989739;28;20127;-79
2021/07/29 06:37:54;;;;;;;5.47;3.13;;;;;;;;;;4991386;28;20157;-79
2021/07/29 06:40:21;;;;;;;8.50;3.03;;;;;;;;;;4990302;28;20046;-79
2021/07/29 06:42:48;;;;;;;4.68;2.45;;;;;;;;;;4990860;28;20086;-79
2021/07/29 06:45:15;;;;;;;4.00;2.53;;;;;;;;;;4990276;28;20077;-78
2021/07/29 06:47:43;;;;;;;8.77;2.67;;;;;;;;;;4989846;28;22146;-79
2021/07/29 06:50:10;;;;;;;2.83;2.08;;;;;;;;;;4992103;28;20157;-79
2021/07/29 06:52:37;;;;;;;8.73;2.85;;;;;;;;;;4989878;28;20590;-79
2021/07/29 06:55:06;;;;;;;7.53;2.10;;;;;;;;;;4989898;28;20220;-79
2021/07/29 06:57:33;;;;;;;6.38;2.28;;;;;;;;;;4991139;28;20520;-79
2021/07/29 07:00:01;;;;;;;6.75;2.33;;;;;;;;;;4990170;28;20059;-80
2021/07/29 07:02:28;;;;;;;6.40;2.33;;;;;;;;;;4989789;28;20105;-79
2021/07/29 07:04:55;;;;;;;4.63;2.40;;;;;;;;;;4987400;28;20050;-79
2021/07/29 07:07:24;;;;;;;8.20;2.70;;;;;;;;;;4980589;28;20092;-80
2021/07/29 07:09:52;;;;;;;6.93;2.25;;;;;;;;;;4990282;28;20070;-80
2021/07/29 07:12:19;;;;;;;8.00;2.28;;;;;;;;;;4992692;28;20042;-80
2021/07/29 07:14:48;;;;;;;9.68;2.45;;;;;;;;;;5007785;28;20727;-80
2021/07/29 07:17:15;;;;;;;5.82;2.53;;;;;;;;;;4990899;28;20128;-80
2021/07/29 07:19:44;;;;;;;3.60;2.13;;;;;;;;;;4991465;28;20513;-79
2021/07/29 07:22:14;;;;;;;6.32;1.80;;;;;;;;;;4991398;28;20750;-78
2021/07/29 07:24:41;;;;;;;12.90;3.03;;;;;;;;;;4993658;28;20833;-83
2021/07/29 07:27:08;;;;;;;7.40;2.35;;;;;;;;;;4992877;28;20646;-80
2021/07/29 07:29:36;;;;;;;5.95;2.47;;;;;;;;;;4998775;28;20050;-80
2021/07/29 07:32:03;;;;;;;5.45;2.03;;;;;;;;;;4994280;28;20439;-80
2021/07/29 07:34:30;;;;;;;3.88;1.95;;;;;;;;;;5001286;28;20471;-80
2021/07/29 07:36:58;;;;;;;4.82;2.00;;;;;;;;;;4986299;28;20154;-81
2021/07/29 07:39:25;;;;;;;7.68;2.47;;;;;;;;;;4990689;28;20116;-79
2021/07/29 07:41:56;;;;;;;9.50;2.60;;;;;;;;;;4989497;28;20092;-83
2021/07/29 07:44:23;;;;;;;35.95;5.13;;;;;;;;;;4986184;28;20086;-83
2021/07/29 07:46:50;;;;;;;7.47;2.42;;;;;;;;;;4989001;28;20050;-81
2021/07/29 07:49:17;;;;;;;7.38;2.22;;;;;;;;;;4992751;28;20130;-78
2021/07/29 07:51:44;;;;;;;3.17;1.85;;;;;;;;;;4992151;28;20129;-80
2021/07/29 07:54:13;;;;;;;9.18;2.03;;;;;;;;;;4991425;28;20130;-80
2021/07/29 07:56:43;;;;;;;7.10;2.50;;;;;;;;;;4992747;28;20138;-84
2021/07/29 07:59:12;;;;;;;6.55;2.10;;;;;;;;;;4999486;28;20069;-83
2021/07/29 08:01:40;;;;;;;3.75;2.25;;;;;;;;;;4991170;28;20070;-79
2021/07/29 08:04:07;;;;;;;9.57;2.53;;;;;;;;;;4982801;28;20125;-80
2021/07/29 08:06:35;;;;;;;7.68;2.13;;;;;;;;;;4989005;28;20077;-80
2021/07/29 08:09:03;;;;;;;4.63;1.90;;;;;;;;;;4990453;28;20100;-80
2021/07/29 08:11:30;;;;;;;5.07;2.25;;;;;;;;;;4989442;28;20153;-79
2021/07/29 08:13:58;;;;;;;3.45;1.85;;;;;;;;;;4990760;28;20092;-80
2021/07/29 08:16:25;;;;;;;5.28;1.77;;;;;;;;;;4991394;28;20050;-80
2021/07/29 08:18:54;;;;;;;5.88;2.10;;;;;;;;;;4988669;28;20054;-80
2021/07/29 08:21:21;;;;;;;7.60;2.10;;;;;;;;;;4986379;28;20060;-79
2021/07/29 08:23:48;;;;;;;5.00;2.20;;;;;;;;;;4987488;28;20125;-80
2021/07/29 08:26:16;;;;;;;6.47;2.17;;;;;;;;;;4989298;28;21215;-80
2021/07/29 08:28:44;;;;;;;9.10;2.25;;;;;;;;;;5006029;28;20100;-79
2021/07/29 08:31:12;;;;;;;7.97;2.35;;;;;;;;;;4999886;28;20160;-79
2021/07/29 08:33:39;;;;;;;6.60;2.25;;;;;;;;;;4989832;28;20084;-80
2021/07/29 08:36:11;;;;;;;6.50;2.65;;;;;;;;;;4983533;28;20140;-80
2021/07/29 08:38:38;;;;;;;6.10;2.17;;;;;;;;;;4987244;28;20605;-79
2021/07/29 08:41:05;;;;;;;5.38;2.53;;;;;;;;;;4987811;28;20058;-79
2021/07/29 08:43:33;;;;;;;7.10;2.13;;;;;;;;;;4988020;28;20683;-79
2021/07/29 08:46:03;;;;;;;10.35;2.50;;;;;;;;;;4988177;28;20078;-79
2021/07/29 08:48:32;;;;;;;8.48;2.67;;;;;;;;;;4987534;28;20074;-79
2021/07/29 08:50:59;;;;;;;7.68;2.60;;;;;;;;;;4987920;28;20133;-79
2021/07/29 08:53:26;;;;;;;10.13;2.80;;;;;;;;;;4986437;28;20160;-79
2021/07/29 08:55:54;;;;;;;5.65;3.03;;;;;;;;;;4988455;28;20418;-79
2021/07/29 08:58:24;;;;;;;7.45;2.38;;;;;;;;;;4987112;28;20070;-79
2021/07/29 09:01:01;;;;;;;6.97;2.40;;;;;;;;;;4990964;28;20053;-80
2021/07/29 09:03:29;;;;;;;5.70;1.90;;;;;;;;;;5003530;28;20078;-80
2021/07/29 09:06:10;;;;;;;7.78;2.30;;;;;;;;;;4984640;28;21466;-78
2021/07/29 09:08:43;;;;;;;9.85;3.28;;;;;;;;;;4988610;28;20050;-79
2021/07/29 09:11:30;;;;;;;10.43;2.45;;;;;;;;;;4979065;28;20132;-79
2021/07/29 09:14:21;;;;;;;7.93;1.90;;;;;;;;;;4994152;28;20057;-79
2021/07/29 09:16:59;;;;;;;3.78;1.77;;;;;;;;;;4986624;28;20052;-81
2021/07/29 09:19:31;;;;;;;9.93;2.00;;;;;;;;;;4993322;28;20113;-81
2021/07/29 09:22:08;;;;;;;7.65;2.17;;;;;;;;;;4988728;28;20645;-79
2021/07/29 09:24:36;;;;;;;5.30;1.80;;;;;;;;;;4987927;28;20046;-79
2021/07/29 09:27:03;;;;;;;6.93;2.03;;;;;;;;;;4991749;28;20045;-79
2021/07/29 09:29:31;;;;;;;10.52;1.48;;;;;;;;;;5005762;28;20045;-80
2021/07/29 09:32:06;;;;;;;8.63;2.53;;;;;;;;;;4987043;28;20398;-78
2021/07/29 09:34:45;;;;;;;4.50;1.83;;;;;;;;;;4984382;28;20038;-79
2021/07/29 09:37:12;;;;;;;8.73;1.92;;;;;;;;;;4993384;28;20680;-79
2021/07/29 09:39:39;;;;;;;9.60;1.85;;;;;;;;;;4986830;28;20170;-79
2021/07/29 09:42:16;;;;;;;9.30;2.00;;;;;;;;;;4971737;28;20169;-79
2021/07/29 09:44:44;;;;;;;4.55;1.70;;;;;;;;;;4987367;28;20106;-79
2021/07/29 09:47:11;;;;;;;8.98;1.77;;;;;;;;;;4979192;28;20082;-78
2021/07/29 09:49:40;;;;;;;6.45;2.25;;;;;;;;;;4987263;28;20142;-78
2021/07/29 09:52:07;;;;;;;8.15;2.10;;;;;;;;;;4985284;28;20052;-79
2021/07/29 09:54:37;;;;;;;5.93;1.90;;;;;;;;;;4985843;28;20054;-80
2021/07/29 09:57:04;;;;;;;6.40;2.35;;;;;;;;;;4991714;28;20133;-81
2021/07/29 09:59:34;;;;;;;4.25;1.77;;;;;;;;;;4992563;28;20162;-80
2021/07/29 10:02:02;;;;;;;4.03;2.25;;;;;;;;;;4990965;28;20768;-79
2021/07/29 10:04:37;;;;;;;5.15;2.03;;;;;;;;;;4991420;28;20120;-80
2021/07/29 10:07:07;;;;;;;4.77;2.00;;;;;;;;;;4977561;28;20547;-80
2021/07/29 10:09:38;;;;;;;5.68;2.45;;;;;;;;;;5008730;28;20077;-83
2021/07/29 10:12:06;;;;;;;5.53;2.25;;;;;;;;;;4985582;28;20138;-83
2021/07/29 10:14:48;;;;;;;8.23;2.53;;;;;;;;;;4991850;28;20133;-82
2021/07/29 10:17:17;;;;;;;8.50;2.53;;;;;;;;;;4993390;28;20138;-82
2021/07/29 10:20:02;;;;;;;6.43;2.70;;;;;;;;;;4995369;28;20152;-83
2021/07/29 10:22:30;;;;;;;4.85;2.03;;;;;;;;;;4993107;28;20129;-83
2021/07/29 10:24:57;;;;;;;10.88;2.72;;;;;;;;;;4991361;28;20444;-83
2021/07/29 10:27:24;;;;;;;5.28;2.38;;;;;;;;;;4998147;28;20077;-83
2021/07/29 10:29:51;;;;;;;6.95;2.53;;;;;;;;;;5007257;28;20046;-83
2021/07/29 10:32:38;;;;;;;14.18;2.20;;;;;;;;;;5008289;28;20069;-84
2021/07/29 10:35:24;;;;;;;2.88;1.67;;;;;;;;;;4988079;28;20061;-81
2021/07/29 10:37:54;;;;;;;7.63;2.10;;;;;;;;;;4993910;28;20507;-82
2021/07/29 10:40:37;;;;;;;5.80;1.95;;;;;;;;;;4989792;28;20082;-81
2021/07/29 10:43:23;;;;;;;10.07;2.35;;;;;;;;;;4986037;28;20101;-82
2021/07/29 10:45:51;;;;;;;7.57;2.42;;;;;;;;;;4998073;28;20082;-82
2021/07/29 10:48:38;;;;;;;10.07;2.63;;;;;;;;;;4995256;28;20126;-82
2021/07/29 10:51:14;;;;;;;10.85;2.72;;;;;;;;;;4995351;28;20141;-83
2021/07/29 10:53:42;;;;;;;14.57;3.08;;;;;;;;;;4984787;28;20081;-82
2021/07/29 10:56:13;;;;;;;7.18;2.63;;;;;;;;;;4983731;28;20132;-82
2021/07/29 10:58:41;;;;;;;26.83;3.10;;;;;;;;;;4999956;28;20848;-81
2021/07/29 11:01:13;;;;;;;4.38;2.03;;;;;;;;;;4993443;28;20101;-81
2021/07/29 11:04:15;;;;;;;9.68;2.10;;;;;;;;;;5003131;28;20081;-80
2021/07/29 11:06:37;;;;;;;6.90;2.22;;;;;;;;;;4989751;28;20089;-81
2021/07/29 11:09:14;;;;;;;13.52;2.80;;;;;;;;;;4992866;28;20058;-81
2021/07/29 11:11:43;;;;;;;13.70;2.45;;;;;;;;;;4990872;28;20050;-80
2021/07/29 11:17:22;;;;;;;13.27;2.78;;;;;;;;;;5008433;28;20054;-81
2021/07/29 11:19:49;;;;;;;9.02;2.35;;;;;;;;;;5014695;28;20458;-79
2021/07/29 11:22:16;;;;;;;6.43;2.13;;;;;;;;;;5016740;28;20049;-80
2021/07/29 11:24:44;;;;;;;9.73;2.00;;;;;;;;;;5005587;28;20850;-80
2021/07/29 11:27:13;;;;;;;7.82;2.13;;;;;;;;;;5017600;28;20081;-80
2021/07/29 11:29:54;;;;;;;13.70;2.35;;;;;;;;;;5027540;28;20073;-81
2021/07/29 11:32:22;;;;;;;5.90;2.80;;;;;;;;;;5033182;28;20128;-81
2021/07/29 11:34:58;;;;;;;7.68;3.08;;;;;;;;;;5023041;28;20724;-81
2021/07/29 11:37:36;;;;;;;8.35;2.60;;;;;;;;;;5025693;28;20076;-82
2021/07/29 11:40:03;;;;;;;6.93;2.33;;;;;;;;;;5019428;28;20080;-84
2021/07/29 11:42:34;;;;;;;6.00;2.40;;;;;;;;;;5021913;28;20072;-81
2021/07/29 11:45:02;;;;;;;6.25;2.95;;;;;;;;;;5019248;28;20053;-80
2021/07/29 11:47:40;;;;;;;11.02;2.33;;;;;;;;;;5022677;28;20133;-79
2021/07/29 11:50:08;;;;;;;7.20;2.30;;;;;;;;;;5037689;28;20080;-80
2021/07/29 11:52:49;;;;;;;9.80;2.90;;;;;;;;;;5023638;28;20148;-82
2021/07/29 11:58:32;;;;;;;6.60;2.95;;;;;;;;;;4967199;28;20097;-79
2021/07/29 12:00:59;;;;;;;9.70;2.42;;;;;;;;;;4969950;28;20050;-79
2021/07/29 12:03:34;;;;;;;6.70;2.97;;;;;;;;;;4968272;28;20046;-79
2021/07/29 12:06:02;;;;;;;5.03;2.40;;;;;;;;;;4963997;28;20538;-79
2021/07/29 12:08:30;;;;;;;22.48;2.58;;;;;;;;;;4971986;28;20158;-80
2021/07/29 12:11:00;;;;;;;5.80;2.28;;;;;;;;;;4957911;28;20050;-80
2021/07/29 12:13:30;;;;;;;18.10;2.75;;;;;;;;;;4963425;28;20130;-79
2021/07/29 12:15:58;;;;;;;5.88;2.20;;;;;;;;;;4959194;28;20101;-79
2021/07/29 12:18:25;;;;;;;10.52;2.22;;;;;;;;;;4974457;28;20046;-79
2021/07/29 12:20:53;;;;;;;4.70;1.88;;;;;;;;;;4984136;28;20050;-79
2021/07/29 12:23:21;;;;;;;12.20;2.10;;;;;;;;;;4982139;28;20139;-78
2021/07/29 12:25:50;;;;;;;5.07;2.22;;;;;;;;;;4969004;28;20510;-79
2021/07/29 12:28:37;;;;;;;12.40;2.38;;;;;;;;;;4981972;28;20081;-81
2021/07/29 12:31:25;;;;;;;11.77;2.25;;;;;;;;;;4983893;28;20137;-79
2021/07/29 12:34:00;;;;;;;5.07;2.00;;;;;;;;;;4981337;28;20050;-81
2021/07/29 12:36:42;;;;;;;8.70;2.53;;;;;;;;;;4976828;28;20108;-81
2021/07/29 12:39:10;;;;;;;9.75;1.75;;;;;;;;;;4986420;28;20178;-79
2021/07/29 12:41:39;;;;;;;13.63;2.30;;;;;;;;;;4986682;28;20527;-80
2021/07/29 12:44:07;;;;;;;6.18;2.05;;;;;;;;;;4989134;28;20133;-81
2021/07/29 12:46:35;;;;;;;10.90;2.70;;;;;;;;;;4981416;28;20441;-84
2021/07/29 12:49:03;;;;;;;4.43;2.00;;;;;;;;;;4971225;28;20077;-81
2021/07/29 12:51:41;;;;;;;7.82;1.92;;;;;;;;;;4973068;28;20046;-84
2021/07/29 12:54:11;;;;;;;5.18;1.85;;;;;;;;;;4980788;28;20105;-82
2021/07/29 12:56:39;;;;;;;5.65;2.00;;;;;;;;;;4971406;28;20048;-79
2021/07/29 12:59:08;;;;;;;7.63;1.80;;;;;;;;;;4983165;28;20089;-78
2021/07/29 13:01:39;;;;;;;12.40;2.30;;;;;;;;;;4967922;28;20074;-82
2021/07/29 13:04:06;;;;;;;9.95;1.75;;;;;;;;;;4980202;28;20050;-80
2021/07/29 13:06:34;;;;;;;5.60;1.88;;;;;;;;;;4976423;28;20129;-82
2021/07/29 13:09:01;;;;;;;8.70;2.70;;;;;;;;;;4968686;28;20476;-80
2021/07/29 13:11:28;;;;;;;6.95;2.30;;;;;;;;;;4971550;28;20097;-81
2021/07/29 13:13:56;;;;;;;9.10;2.60;;;;;;;;;;4963638;28;20081;-81
2021/07/29 13:16:23;;;;;;;7.60;2.22;;;;;;;;;;4950490;28;20053;-80
2021/07/29 13:18:50;;;;;;;5.18;1.95;;;;;;;;;;4975065;28;20502;-81
2021/07/29 13:21:18;;;;;;;9.75;2.53;;;;;;;;;;4985911;28;20047;-80
2021/07/29 13:23:45;;;;;;;3.30;2.13;;;;;;;;;;4969095;28;20094;-78
2021/07/29 13:26:15;;;;;;;4.93;1.88;;;;;;;;;;4973048;28;20058;-80
2021/07/29 13:28:42;;;;;;;24.52;2.70;;;;;;;;;;4988692;28;20046;-79
2021/07/29 13:31:09;;;;;;;8.95;2.65;;;;;;;;;;4982864;28;20391;-78
2021/07/29 13:33:37;;;;;;;5.65;2.22;;;;;;;;;;4977188;28;20047;-79
2021/07/29 13:36:04;;;;;;;12.13;2.30;;;;;;;;;;4964910;28;20114;-78
2021/07/29 13:38:31;;;;;;;9.63;3.13;;;;;;;;;;4978705;28;20129;-79
2021/07/29 13:40:59;;;;;;;5.97;1.70;;;;;;;;;;4974248;28;20162;-80
2021/07/29 13:43:26;;;;;;;9.60;2.10;;;;;;;;;;4979983;28;20137;-78
2021/07/29 13:45:53;;;;;;;5.07;1.90;;;;;;;;;;4972729;28;20060;-78
2021/07/29 13:48:20;;;;;;;6.72;1.80;;;;;;;;;;4968762;28;20750;-77
2021/07/29 13:50:47;;;;;;;9.38;1.67;;;;;;;;;;4986431;28;20137;-79
2021/07/29 13:53:14;;;;;;;5.85;1.98;;;;;;;;;;4985832;28;20186;-78
2021/07/29 13:55:41;;;;;;;12.48;2.30;;;;;;;;;;4955772;28;20053;-78
2021/07/29 13:58:09;;;;;;;3.22;1.45;;;;;;;;;;4985386;28;20141;-79
2021/07/29 14:00:36;;;;;;;6.85;1.83;;;;;;;;;;4986659;28;20050;-78
2021/07/29 14:03:05;;;;;;;10.90;2.40;;;;;;;;;;4985587;28;20054;-78
2021/07/29 14:05:41;;;;;;;8.60;2.08;;;;;;;;;;4956360;28;20055;-78
2021/07/29 14:08:09;;;;;;;10.80;1.95;;;;;;;;;;4968658;28;20054;-78
2021/07/29 14:10:37;;;;;;;20.05;2.38;;;;;;;;;;4986363;28;20105;-78
2021/07/29 14:13:05;;;;;;;12.20;1.67;;;;;;;;;;4986466;28;20121;-79
2021/07/29 14:15:32;;;;;;;5.00;1.70;;;;;;;;;;4953365;28;20904;-79
2021/07/29 14:18:01;;;;;;;8.00;1.83;;;;;;;;;;4984085;28;20105;-78
2021/07/29 14:20:43;;;;;;;7.60;1.50;;;;;;;;;;4969525;28;20145;-79
2021/07/29 14:23:12;;;;;;;11.93;2.05;;;;;;;;;;4968616;28;20124;-79
2021/07/29 14:25:40;;;;;;;9.43;1.67;;;;;;;;;;4955470;28;20125;-80
2021/07/29 14:28:09;;;;;;;5.45;1.73;;;;;;;;;;4985815;28;20093;-80
2021/07/29 14:30:37;;;;;;;7.47;1.75;;;;;;;;;;4986088;28;20137;-80
2021/07/29 14:33:06;;;;;;;5.55;1.20;;;;;;;;;;4986463;28;20050;-79
2021/07/29 14:35:36;;;;;;;5.32;1.40;;;;;;;;;;4975135;28;20137;-79
2021/07/29 14:38:04;;;;;;;3.05;1.23;;;;;;;;;;4986437;28;20671;-78
2021/07/29 14:40:32;;;;;;;7.50;1.52;;;;;;;;;;4985897;28;20104;-80
2021/07/29 14:42:59;;;;;;;4.50;1.08;;;;;;;;;;4988864;28;20479;-78
2021/07/29 14:50:50;;;;;;;46.30;3.15;;;;;;;;;;4988351;28;20054;-81
2021/07/29 14:53:18;;;;;;;13.25;2.05;;;;;;;;;;4994136;28;20148;-79
2021/07/29 16:07:42;;;;;;;8.80;2.33;;;;;;;;;;4991369;28;20076;-82
2021/07/29 16:10:09;;;;;;;5.15;2.30;;;;;;;;;;4991299;28;20046;-81
2021/07/29 16:12:39;;;;;;;7.78;2.38;;;;;;;;;;4989683;28;20468;-82
2021/07/29 16:15:07;;;;;;;6.18;1.83;;;;;;;;;;4978183;28;20551;-81